Time;durP1;ratioP1;P1;durP2;ratioP2;P2;SDS_P1;SDS_P2;PMS_P1;PMS_P2;Temp;Humidity;BMP_temperature;BMP_pressure;BME280_temperature;BME280_humidity;BME280_pressure;Samples;Min_cycle;Max_cycle;Signal;HPM_P1;HPM_P2
2021/09/15 00:02:19;;;;;;;15.55;14.02;;;17.90;79.90;;;;;;5216983;28;20560;-71
2021/09/15 00:04:51;;;;;;;15.00;13.73;;;17.90;79.10;;;;;;5216613;28;20120;-69
2021/09/15 00:07:23;;;;;;;15.65;14.25;;;17.90;79.30;;;;;;5199533;28;20063;-69
2021/09/15 00:09:55;;;;;;;15.82;14.35;;;17.90;79.10;;;;;;5219020;28;20095;-69
2021/09/15 00:12:27;;;;;;;15.52;14.20;;;17.90;79.30;;;;;;5206855;28;20045;-69
2021/09/15 00:15:00;;;;;;;16.10;14.52;;;17.90;79.10;;;;;;5218469;28;20069;-69
2021/09/15 00:17:32;;;;;;;15.63;14.32;;;17.90;79.10;;;;;;5216726;28;20098;-69
2021/09/15 00:20:06;;;;;;;16.65;15.25;;;17.90;79.40;;;;;;5217728;28;20147;-70
2021/09/15 00:22:38;;;;;;;15.95;14.45;;;17.80;80.80;;;;;;5216495;28;20068;-69
2021/09/15 00:25:10;;;;;;;15.80;14.50;;;17.70;80.10;;;;;;5209472;28;20072;-70
2021/09/15 00:27:42;;;;;;;16.05;14.73;;;17.70;80.80;;;;;;5215968;28;20738;-71
2021/09/15 00:30:14;;;;;;;15.68;14.45;;;17.70;79.90;;;;;;5217776;28;20072;-70
2021/09/15 00:32:46;;;;;;;15.68;14.38;;;17.60;80.10;;;;;;5216612;28;20045;-71
2021/09/15 00:35:18;;;;;;;15.45;14.27;;;17.60;80.00;;;;;;5205840;28;20049;-70
2021/09/15 00:37:50;;;;;;;16.42;14.88;;;17.60;80.00;;;;;;5216317;28;20142;-71
2021/09/15 00:40:22;;;;;;;15.95;14.73;;;17.60;80.00;;;;;;5217801;28;20045;-71
2021/09/15 00:42:54;;;;;;;15.35;14.02;;;17.50;79.80;;;;;;5216764;28;20107;-70
2021/09/15 00:45:26;;;;;;;15.52;14.32;;;17.50;80.40;;;;;;5217942;28;20048;-71
2021/09/15 00:47:58;;;;;;;15.70;14.50;;;17.50;80.30;;;;;;5215518;28;20589;-71
2021/09/15 00:50:30;;;;;;;16.00;14.63;;;17.40;80.40;;;;;;5199750;28;20118;-71
2021/09/15 00:53:03;;;;;;;16.63;15.10;;;17.30;80.90;;;;;;5218101;28;20427;-71
2021/09/15 00:55:36;;;;;;;15.52;14.32;;;17.30;81.30;;;;;;5215395;28;20405;-71
2021/09/15 00:58:09;;;;;;;16.23;14.82;;;17.30;81.50;;;;;;5215436;28;20473;-70
2021/09/15 01:00:42;;;;;;;15.80;14.52;;;17.20;82.00;;;;;;5216443;28;20045;-71
2021/09/15 01:03:14;;;;;;;16.00;14.65;;;17.20;82.10;;;;;;5216605;28;20133;-71
2021/09/15 01:05:46;;;;;;;16.65;15.00;;;17.10;82.30;;;;;;5215566;28;20041;-70
2021/09/15 01:08:19;;;;;;;16.63;15.23;;;17.10;82.30;;;;;;5195278;28;20170;-70
2021/09/15 01:10:54;;;;;;;15.90;14.52;;;17.10;82.50;;;;;;5216795;28;20045;-71
2021/09/15 01:13:32;;;;;;;16.05;14.75;;;17.10;82.60;;;;;;5200172;28;20060;-71
2021/09/15 01:16:53;;;;;;;15.98;14.68;;;17.10;82.40;;;;;;5198563;28;20156;-69
2021/09/15 01:19:44;;;;;;;16.27;14.98;;;17.10;82.10;;;;;;5216836;28;20106;-69
2021/09/15 01:22:35;;;;;;;15.68;14.27;;;17.10;82.00;;;;;;5216360;28;20041;-70
2021/09/15 01:25:26;;;;;;;17.20;15.80;;;17.10;82.70;;;;;;5214589;28;20057;-71
2021/09/15 01:28:16;;;;;;;16.17;14.88;;;17.10;82.80;;;;;;5216567;28;20056;-71
2021/09/15 01:30:53;;;;;;;16.25;14.93;;;17.00;82.00;;;;;;5205252;28;20046;-71
2021/09/15 01:33:26;;;;;;;16.17;14.98;;;17.00;81.80;;;;;;5215755;28;20074;-71
2021/09/15 01:35:58;;;;;;;16.63;15.32;;;17.00;81.60;;;;;;5212725;28;20089;-70
2021/09/15 01:38:30;;;;;;;16.23;15.02;;;17.00;81.30;;;;;;5205729;28;20055;-70
2021/09/15 01:41:03;;;;;;;16.25;15.05;;;17.10;81.40;;;;;;5212055;28;20060;-71
2021/09/15 01:43:36;;;;;;;16.05;14.75;;;17.10;82.30;;;;;;5219761;28;20142;-70
2021/09/15 01:46:07;;;;;;;16.58;15.27;;;17.00;81.10;;;;;;5190773;28;20556;-70
2021/09/15 01:48:39;;;;;;;15.93;14.73;;;17.10;81.10;;;;;;5216924;28;20072;-70
2021/09/15 01:51:11;;;;;;;14.68;13.35;;;17.00;81.20;;;;;;5197893;28;20140;-70
2021/09/15 01:53:44;;;;;;;15.52;14.23;;;17.10;80.90;;;;;;5214962;28;20126;-70
2021/09/15 01:56:17;;;;;;;15.75;14.52;;;17.10;81.00;;;;;;5212405;28;20071;-71
2021/09/15 01:59:25;;;;;;;16.38;14.93;;;17.00;81.30;;;;;;5213659;28;20084;-70
2021/09/15 02:02:15;;;;;;;16.70;15.27;;;17.00;81.90;;;;;;5215032;28;20059;-70
2021/09/15 02:04:57;;;;;;;16.10;14.80;;;16.90;81.80;;;;;;5231327;28;20057;-70
2021/09/15 02:07:36;;;;;;;16.23;14.93;;;16.90;82.10;;;;;;5214997;28;20064;-69
2021/09/15 02:10:26;;;;;;;16.55;15.25;;;16.90;82.40;;;;;;5200101;28;20638;-70
2021/09/15 02:12:58;;;;;;;17.08;15.40;;;16.80;82.60;;;;;;5215130;28;20044;-69
2021/09/15 02:15:31;;;;;;;16.50;15.20;;;16.80;82.80;;;;;;5213279;28;20033;-69
2021/09/15 02:18:04;;;;;;;16.80;15.50;;;16.70;83.00;;;;;;5215221;28;20037;-68
2021/09/15 02:20:56;;;;;;;18.08;16.33;;;16.70;83.40;;;;;;5214885;28;20140;-69
2021/09/15 02:23:43;;;;;;;17.15;15.65;;;16.70;82.60;;;;;;5219696;28;20183;-69
2021/09/15 02:26:22;;;;;;;16.52;15.23;;;16.70;82.30;;;;;;5213183;28;20388;-68
2021/09/15 02:28:59;;;;;;;16.35;15.10;;;16.70;83.40;;;;;;5213119;28;20132;-69
2021/09/15 02:31:47;;;;;;;16.63;15.13;;;16.60;82.80;;;;;;5205745;28;20359;-69
2021/09/15 02:34:47;;;;;;;15.85;14.65;;;16.60;82.40;;;;;;5214500;28;20560;-69
2021/09/15 02:37:36;;;;;;;15.90;14.50;;;16.70;82.20;;;;;;5204060;28;20088;-69
2021/09/15 02:40:40;;;;;;;16.02;14.73;;;16.70;82.40;;;;;;5212120;28;20053;-69
2021/09/15 02:43:43;;;;;;;16.17;14.57;;;16.60;82.60;;;;;;5197895;28;20086;-70
2021/09/15 02:46:45;;;;;;;16.50;14.93;;;16.60;82.90;;;;;;5221457;28;20056;-70
2021/09/15 02:49:55;;;;;;;16.23;15.02;;;16.60;82.30;;;;;;5215074;28;20049;-69
2021/09/15 02:52:47;;;;;;;16.48;15.13;;;16.60;82.30;;;;;;5213442;28;20056;-70
2021/09/15 02:55:41;;;;;;;16.58;15.05;;;16.60;82.40;;;;;;5204681;28;20037;-69
2021/09/15 02:58:31;;;;;;;15.40;14.20;;;16.60;82.20;;;;;;5200332;28;20083;-69
2021/09/15 03:01:11;;;;;;;16.65;15.18;;;16.60;82.10;;;;;;5197683;28;20635;-70
2021/09/15 03:03:57;;;;;;;16.20;14.95;;;16.50;82.10;;;;;;5214450;28;20037;-70
2021/09/15 03:06:34;;;;;;;16.20;14.73;;;16.50;82.30;;;;;;5192279;28;20458;-69
2021/09/15 03:09:18;;;;;;;15.73;14.43;;;16.50;82.10;;;;;;5193977;28;20045;-69
2021/09/15 03:11:50;;;;;;;15.88;14.27;;;16.50;82.40;;;;;;5206917;28;20041;-70
2021/09/15 03:14:23;;;;;;;16.00;14.55;;;16.40;83.00;;;;;;5203770;28;20954;-69
2021/09/15 03:16:55;;;;;;;15.95;14.70;;;16.40;83.20;;;;;;5218362;28;20090;-70
2021/09/15 03:19:27;;;;;;;15.43;14.23;;;16.40;83.60;;;;;;5203109;28;20419;-70
2021/09/15 03:21:59;;;;;;;15.25;14.00;;;16.30;83.30;;;;;;5190972;28;20041;-70
2021/09/15 03:24:33;;;;;;;16.00;14.50;;;16.30;83.30;;;;;;5230455;28;20118;-70
2021/09/15 03:27:05;;;;;;;15.18;13.90;;;16.30;83.00;;;;;;5213723;28;20059;-70
2021/09/15 03:29:37;;;;;;;15.65;14.40;;;16.30;83.00;;;;;;5214195;28;20081;-69
2021/09/15 03:32:09;;;;;;;16.20;14.75;;;16.40;83.00;;;;;;5213377;28;20469;-70
2021/09/15 03:34:41;;;;;;;16.38;14.80;;;16.40;83.80;;;;;;5216152;28;20029;-69
2021/09/15 03:37:13;;;;;;;16.02;14.73;;;16.30;84.00;;;;;;5215294;28;20057;-69
2021/09/15 03:39:45;;;;;;;15.38;14.18;;;16.30;83.50;;;;;;5218373;28;20136;-69
2021/09/15 03:42:17;;;;;;;15.25;14.05;;;16.30;83.40;;;;;;5208608;28;20072;-71
2021/09/15 03:44:50;;;;;;;15.63;14.35;;;16.30;83.30;;;;;;5218422;28;20561;-70
2021/09/15 03:47:22;;;;;;;15.93;14.65;;;16.30;84.00;;;;;;5216737;28;20049;-70
2021/09/15 03:49:53;;;;;;;16.08;14.65;;;16.30;84.40;;;;;;5192347;28;20454;-70
2021/09/15 03:52:25;;;;;;;16.15;14.65;;;16.30;85.40;;;;;;5216285;28;20138;-69
2021/09/15 03:54:59;;;;;;;14.68;13.48;;;16.20;84.70;;;;;;5233420;28;20134;-70
2021/09/15 03:57:32;;;;;;;15.20;13.77;;;16.20;84.90;;;;;;5215714;28;20059;-70
2021/09/15 04:00:04;;;;;;;15.95;14.55;;;16.20;84.70;;;;;;5200485;28;20041;-68
2021/09/15 04:02:43;;;;;;;16.02;14.60;;;16.30;84.80;;;;;;5219085;28;20048;-69
2021/09/15 04:05:21;;;;;;;15.70;14.30;;;16.20;84.70;;;;;;5202360;28;20126;-69
2021/09/15 04:07:53;;;;;;;14.57;13.38;;;16.30;84.50;;;;;;5205154;28;20037;-70
2021/09/15 04:10:26;;;;;;;15.05;13.77;;;16.30;84.50;;;;;;5208172;28;20045;-72
2021/09/15 04:12:58;;;;;;;15.85;14.45;;;16.30;84.80;;;;;;5217355;28;20055;-71
2021/09/15 04:15:34;;;;;;;15.88;14.40;;;16.40;85.00;;;;;;5200377;28;20136;-71
2021/09/15 04:18:06;;;;;;;16.20;14.82;;;16.40;84.70;;;;;;5194956;28;20419;-71
2021/09/15 04:20:42;;;;;;;16.45;15.13;;;16.40;84.70;;;;;;5200132;28;20530;-71
2021/09/15 04:31:32;;;;;;;15.68;14.18;;;16.40;84.60;;;;;;5202568;28;20051;-71
2021/09/15 04:34:08;;;;;;;15.60;14.27;;;16.40;85.00;;;;;;5200858;28;20076;-68
2021/09/15 04:36:56;;;;;;;15.52;14.13;;;16.30;85.60;;;;;;5196569;28;20111;-68
2021/09/15 04:39:28;;;;;;;14.55;13.35;;;16.20;85.90;;;;;;5217128;28;20055;-68
2021/09/15 04:42:00;;;;;;;15.10;13.90;;;16.20;85.30;;;;;;5205107;28;20056;-69
2021/09/15 04:44:32;;;;;;;14.73;13.52;;;16.30;85.80;;;;;;5216052;28;20045;-69
2021/09/15 04:47:04;;;;;;;15.38;14.07;;;16.30;85.60;;;;;;5216210;28;20208;-69
2021/09/15 04:49:36;;;;;;;15.75;14.45;;;16.30;86.10;;;;;;5212102;28;20053;-70
2021/09/15 04:52:09;;;;;;;14.95;13.75;;;16.30;86.30;;;;;;5199865;28;20126;-71
2021/09/15 04:54:41;;;;;;;15.55;14.32;;;16.30;85.60;;;;;;5233014;28;20044;-70
2021/09/15 04:57:13;;;;;;;15.93;14.48;;;16.30;85.80;;;;;;5215098;28;20107;-70
2021/09/15 04:59:45;;;;;;;15.10;13.75;;;16.30;86.40;;;;;;5215905;28;20048;-70
2021/09/15 05:02:17;;;;;;;15.10;13.73;;;16.30;86.50;;;;;;5217785;28;20104;-71
2021/09/15 05:04:51;;;;;;;15.75;14.35;;;16.20;86.20;;;;;;5197324;28;20533;-68
2021/09/15 05:07:33;;;;;;;16.23;14.20;;;16.20;86.10;;;;;;5206553;28;20128;-69
2021/09/15 05:10:06;;;;;;;14.38;13.25;;;16.30;85.60;;;;;;5215289;28;20044;-68
2021/09/15 05:12:38;;;;;;;15.70;14.23;;;16.30;85.80;;;;;;5199261;28;20048;-68
2021/09/15 05:15:10;;;;;;;14.82;13.43;;;16.40;86.50;;;;;;5190946;28;20778;-69
2021/09/15 05:17:42;;;;;;;15.70;14.20;;;16.40;86.80;;;;;;5214282;28;20137;-69
2021/09/15 05:20:17;;;;;;;15.93;14.48;;;16.40;86.50;;;;;;5198370;28;20052;-69
2021/09/15 05:22:53;;;;;;;15.75;14.25;;;16.40;86.80;;;;;;5179833;28;20052;-69
2021/09/15 05:25:25;;;;;;;15.77;14.40;;;16.50;86.80;;;;;;5214571;28;20049;-70
2021/09/15 05:27:59;;;;;;;15.95;14.52;;;16.50;86.80;;;;;;5192237;28;20044;-70
2021/09/15 05:30:34;;;;;;;16.50;14.98;;;16.50;86.70;;;;;;5193425;28;20178;-70
2021/09/15 05:33:08;;;;;;;15.57;14.25;;;16.50;87.50;;;;;;5230143;28;20045;-69
2021/09/15 05:35:41;;;;;;;16.30;14.90;;;16.50;87.00;;;;;;5211588;28;20051;-73
2021/09/15 05:38:15;;;;;;;15.73;14.50;;;16.50;87.40;;;;;;5195602;28;20049;-69
2021/09/15 05:41:01;;;;;;;16.83;15.30;;;16.50;87.10;;;;;;5204186;28;20056;-69
2021/09/15 05:43:34;;;;;;;16.30;14.80;;;16.50;86.80;;;;;;5210891;28;20049;-70
2021/09/15 05:46:06;;;;;;;16.27;14.88;;;16.60;87.60;;;;;;5194527;28;20045;-71
2021/09/15 05:48:38;;;;;;;16.10;14.80;;;16.60;87.00;;;;;;5197342;28;20801;-70
2021/09/15 05:51:10;;;;;;;16.63;15.13;;;16.60;86.80;;;;;;5193675;28;20047;-70
2021/09/15 05:53:44;;;;;;;16.08;14.68;;;16.60;86.90;;;;;;5191694;28;20060;-71
2021/09/15 05:56:16;;;;;;;15.63;14.13;;;16.60;87.00;;;;;;5211155;28;20045;-70
2021/09/15 05:58:48;;;;;;;15.77;14.35;;;16.60;87.20;;;;;;5213462;28;20532;-70
2021/09/15 06:01:20;;;;;;;15.70;14.40;;;16.70;87.10;;;;;;5196932;28;20179;-70
2021/09/15 06:03:52;;;;;;;15.70;14.32;;;16.70;86.80;;;;;;5197151;28;20537;-70
2021/09/15 06:06:32;;;;;;;15.18;13.68;;;16.70;87.10;;;;;;5213722;28;20041;-71
2021/09/15 06:09:11;;;;;;;15.50;14.00;;;16.70;87.40;;;;;;5215437;28;20126;-71
2021/09/15 06:11:45;;;;;;;15.82;14.52;;;16.80;87.00;;;;;;5181965;28;20410;-70
2021/09/15 06:14:17;;;;;;;16.38;14.77;;;16.90;86.40;;;;;;5198453;28;20620;-70
2021/09/15 06:16:49;;;;;;;15.63;14.32;;;17.00;86.90;;;;;;5188726;28;20485;-70
2021/09/15 06:19:23;;;;;;;16.42;14.88;;;17.00;86.70;;;;;;5208544;28;20053;-70
2021/09/15 06:22:11;;;;;;;16.48;14.85;;;17.00;86.70;;;;;;5198871;28;20947;-70
2021/09/15 06:25:03;;;;;;;16.98;15.30;;;17.10;86.50;;;;;;5217300;28;20626;-70
2021/09/15 06:27:41;;;;;;;16.52;15.00;;;17.10;87.00;;;;;;5214696;28;20053;-70
2021/09/15 06:30:14;;;;;;;16.27;14.88;;;17.20;86.50;;;;;;5216841;28;20934;-71
2021/09/15 06:32:46;;;;;;;16.70;15.10;;;17.20;86.60;;;;;;5215868;28;20037;-70
2021/09/15 06:35:20;;;;;;;16.20;14.80;;;17.30;86.20;;;;;;5204690;28;20053;-70
2021/09/15 06:37:52;;;;;;;15.82;14.43;;;17.40;86.20;;;;;;5213617;28;20093;-70
2021/09/15 06:40:25;;;;;;;16.95;15.55;;;17.40;86.20;;;;;;5214648;28;20414;-70
2021/09/15 06:42:57;;;;;;;16.30;14.90;;;17.40;87.80;;;;;;5197320;28;20102;-70
2021/09/15 06:45:29;;;;;;;15.55;14.35;;;17.40;87.30;;;;;;5216875;28;20044;-69
2021/09/15 06:48:01;;;;;;;16.05;14.65;;;17.50;87.20;;;;;;5213927;28;20399;-69
2021/09/15 06:50:33;;;;;;;16.15;14.68;;;17.50;87.20;;;;;;5214949;28;20102;-71
2021/09/15 06:53:05;;;;;;;16.30;14.90;;;17.60;88.00;;;;;;5215345;28;20106;-70
2021/09/15 06:55:37;;;;;;;16.75;15.30;;;17.60;87.90;;;;;;5213701;28;20049;-70
2021/09/15 06:58:09;;;;;;;16.92;15.38;;;17.70;87.90;;;;;;5213360;28;20143;-70
2021/09/15 07:00:41;;;;;;;16.90;15.60;;;17.60;87.20;;;;;;5214619;28;20151;-70
2021/09/15 07:03:13;;;;;;;17.80;16.48;;;17.70;87.30;;;;;;5214162;28;20092;-70
2021/09/15 07:05:45;;;;;;;17.95;16.35;;;17.80;87.50;;;;;;5197123;28;20127;-70
2021/09/15 07:08:17;;;;;;;18.27;16.67;;;17.90;87.10;;;;;;5213794;28;20053;-71
2021/09/15 07:10:49;;;;;;;17.00;15.70;;;18.00;87.40;;;;;;5197937;28;20048;-69
2021/09/15 07:13:23;;;;;;;17.65;16.08;;;18.10;87.30;;;;;;5219780;28;20391;-70
2021/09/15 07:15:58;;;;;;;17.65;15.95;;;18.10;87.20;;;;;;5219345;28;20051;-69
2021/09/15 07:18:29;;;;;;;18.13;16.40;;;18.30;88.20;;;;;;5220998;28;20414;-71
2021/09/15 07:21:02;;;;;;;18.13;16.40;;;18.30;87.90;;;;;;5207512;28;20091;-71
2021/09/15 07:23:36;;;;;;;18.05;16.45;;;18.40;86.60;;;;;;5220616;28;20052;-71
2021/09/15 07:26:08;;;;;;;18.55;16.83;;;18.50;86.40;;;;;;5197284;28;20073;-71
2021/09/15 07:28:40;;;;;;;17.33;15.80;;;18.60;86.50;;;;;;5190336;28;20041;-70
2021/09/15 07:31:12;;;;;;;17.95;16.35;;;18.70;86.60;;;;;;5199773;28;20107;-71
2021/09/15 07:33:44;;;;;;;17.90;16.42;;;18.90;85.80;;;;;;5219972;28;20122;-71
2021/09/15 07:36:16;;;;;;;18.85;17.13;;;18.90;85.40;;;;;;5217683;28;20052;-71
2021/09/15 07:38:48;;;;;;;17.58;16.08;;;18.90;85.00;;;;;;5218350;28;20750;-71
2021/09/15 07:41:20;;;;;;;17.92;16.42;;;19.00;85.30;;;;;;5216870;28;20131;-72
2021/09/15 07:43:52;;;;;;;18.38;16.58;;;19.00;84.70;;;;;;5213120;28;20534;-71
2021/09/15 07:46:25;;;;;;;18.67;16.80;;;18.90;85.30;;;;;;5218382;28;21055;-71
2021/09/15 07:48:56;;;;;;;17.90;16.45;;;18.90;85.30;;;;;;5210184;28;20140;-71
2021/09/15 07:51:28;;;;;;;18.77;17.27;;;19.00;85.40;;;;;;5217711;28;20098;-70
2021/09/15 07:54:01;;;;;;;18.65;17.05;;;19.10;84.60;;;;;;5218056;28;20135;-72
2021/09/15 07:56:34;;;;;;;19.05;17.45;;;19.10;84.30;;;;;;5215184;28;20037;-71
2021/09/15 07:59:06;;;;;;;18.90;17.20;;;19.20;84.00;;;;;;5201197;28;20095;-71
2021/09/15 08:01:38;;;;;;;18.95;17.15;;;19.20;83.90;;;;;;5217791;28;20877;-71
2021/09/15 08:04:10;;;;;;;18.48;16.90;;;19.20;83.70;;;;;;5218426;28;20049;-71
2021/09/15 08:06:41;;;;;;;18.77;17.05;;;19.30;82.20;;;;;;5217037;28;20077;-71
2021/09/15 08:09:21;;;;;;;19.10;17.60;;;19.40;82.00;;;;;;5208531;28;20103;-71
2021/09/15 08:11:53;;;;;;;19.52;17.92;;;19.50;83.20;;;;;;5232229;28;20061;-70
2021/09/15 08:14:26;;;;;;;18.90;17.38;;;19.60;83.60;;;;;;5218621;28;20120;-71
2021/09/15 08:16:59;;;;;;;19.25;17.55;;;19.70;83.40;;;;;;5217318;28;20049;-71
2021/09/15 08:19:31;;;;;;;19.65;17.88;;;19.70;83.40;;;;;;5201148;28;20072;-71
2021/09/15 08:22:03;;;;;;;19.88;18.38;;;19.80;83.40;;;;;;5216486;28;20942;-71
2021/09/15 08:24:36;;;;;;;19.73;18.20;;;19.90;83.10;;;;;;5219136;28;20037;-72
2021/09/15 08:27:08;;;;;;;19.48;17.83;;;20.00;82.90;;;;;;5198701;28;20136;-72
2021/09/15 08:29:40;;;;;;;19.55;17.73;;;20.00;82.80;;;;;;5218028;28;20501;-72
2021/09/15 08:32:12;;;;;;;18.67;17.10;;;20.20;83.30;;;;;;5216618;28;20044;-71
2021/09/15 08:34:44;;;;;;;18.85;17.42;;;20.30;83.00;;;;;;5216215;28;20041;-71
2021/09/15 08:37:16;;;;;;;19.90;18.23;;;20.40;84.10;;;;;;5217392;28;20163;-71
2021/09/15 08:39:48;;;;;;;19.33;17.70;;;20.50;83.90;;;;;;5218517;28;20053;-71
2021/09/15 08:42:20;;;;;;;20.58;18.58;;;20.60;83.10;;;;;;5198611;28;20717;-71
2021/09/15 08:44:52;;;;;;;18.88;17.45;;;20.70;81.70;;;;;;5200039;28;20072;-72
2021/09/15 08:47:28;;;;;;;19.95;18.40;;;20.70;81.30;;;;;;5215609;28;20135;-72
2021/09/15 08:50:01;;;;;;;20.05;18.48;;;20.80;80.20;;;;;;5216140;28;20049;-72
2021/09/15 08:52:34;;;;;;;19.00;17.50;;;20.80;81.90;;;;;;5217946;28;20530;-72
2021/09/15 08:55:07;;;;;;;21.85;19.83;;;20.80;80.50;;;;;;5216380;28;20144;-72
2021/09/15 08:57:39;;;;;;;21.98;19.75;;;20.80;80.80;;;;;;5217666;28;20534;-71
2021/09/15 09:00:12;;;;;;;20.17;18.58;;;20.80;81.40;;;;;;5216075;28;20103;-71
2021/09/15 09:02:47;;;;;;;19.92;18.02;;;20.90;82.30;;;;;;5219109;28;20426;-72
2021/09/15 09:05:20;;;;;;;19.13;17.52;;;20.90;82.50;;;;;;5216333;28;20068;-72
2021/09/15 09:07:52;;;;;;;18.75;17.15;;;21.00;81.90;;;;;;5216345;28;20111;-72
2021/09/15 09:10:24;;;;;;;20.52;18.38;;;20.90;82.80;;;;;;5215517;28;20052;-71
2021/09/15 09:12:56;;;;;;;22.92;20.25;;;21.00;82.70;;;;;;5218149;28;20712;-71
2021/09/15 09:15:28;;;;;;;20.60;18.63;;;21.00;79.50;;;;;;5216304;28;20045;-71
2021/09/15 09:18:16;;;;;;;20.55;18.50;;;20.90;80.80;;;;;;5211228;28;20064;-72
2021/09/15 09:20:48;;;;;;;19.48;17.92;;;21.00;81.00;;;;;;5201821;28;20049;-73
2021/09/15 09:23:40;;;;;;;19.88;18.17;;;20.90;79.70;;;;;;5196634;28;20186;-72
2021/09/15 09:26:12;;;;;;;19.05;17.42;;;20.90;79.40;;;;;;5193898;28;20048;-71
2021/09/15 09:28:44;;;;;;;19.60;17.85;;;20.80;79.40;;;;;;5194491;28;20042;-72
2021/09/15 09:31:17;;;;;;;19.45;17.73;;;20.80;80.40;;;;;;5201028;28;20049;-72
2021/09/15 09:34:03;;;;;;;19.17;17.58;;;20.80;79.50;;;;;;5194186;28;20034;-72
2021/09/15 09:36:35;;;;;;;19.87;18.27;;;20.80;79.90;;;;;;5186944;28;20454;-71
2021/09/15 09:39:11;;;;;;;20.98;19.15;;;20.70;81.80;;;;;;5162243;28;20143;-72
2021/09/15 09:41:43;;;;;;;19.27;17.88;;;20.80;83.70;;;;;;5195789;28;20594;-71
2021/09/15 09:44:27;;;;;;;19.80;18.05;;;20.80;82.40;;;;;;5178159;28;20049;-71
2021/09/15 09:47:21;;;;;;;20.80;18.92;;;20.80;81.70;;;;;;5183607;28;20049;-71
2021/09/15 09:50:11;;;;;;;20.25;18.48;;;20.80;81.70;;;;;;5196253;28;20475;-71
2021/09/15 09:53:02;;;;;;;19.75;18.08;;;20.90;82.10;;;;;;5206663;28;20124;-72
2021/09/15 09:55:37;;;;;;;20.50;18.55;;;20.90;83.10;;;;;;5221849;28;20055;-72
2021/09/15 09:58:09;;;;;;;21.38;19.70;;;21.00;82.20;;;;;;5215855;28;20740;-71
2021/09/15 10:00:42;;;;;;;19.85;18.30;;;21.10;82.40;;;;;;5214427;28;20421;-72
2021/09/15 10:03:14;;;;;;;20.08;18.58;;;21.20;82.50;;;;;;5232100;28;20056;-71
2021/09/15 10:05:47;;;;;;;20.92;19.10;;;21.20;82.40;;;;;;5213709;28;20041;-71
2021/09/15 10:08:21;;;;;;;20.92;19.08;;;21.30;82.30;;;;;;5222650;28;20080;-71
2021/09/15 10:10:53;;;;;;;21.55;19.83;;;21.40;82.80;;;;;;5212951;28;20122;-71
2021/09/15 10:13:24;;;;;;;21.63;19.73;;;21.40;81.60;;;;;;5214522;28;20041;-72
2021/09/15 10:16:02;;;;;;;21.23;19.55;;;21.50;83.80;;;;;;5214642;28;20120;-71
2021/09/15 10:18:35;;;;;;;22.15;20.45;;;21.60;82.20;;;;;;5214743;28;20052;-72
2021/09/15 10:21:07;;;;;;;20.98;19.38;;;21.70;82.70;;;;;;5215983;28;20080;-71
2021/09/15 10:23:46;;;;;;;21.08;19.48;;;21.70;80.90;;;;;;5216165;28;20045;-71
2021/09/15 10:26:29;;;;;;;21.20;19.50;;;21.80;80.70;;;;;;5197496;28;20618;-72
2021/09/15 10:29:28;;;;;;;21.85;20.15;;;22.00;80.00;;;;;;5214724;28;20049;-72
2021/09/15 10:32:03;;;;;;;21.77;20.13;;;22.10;79.90;;;;;;5212070;28;20713;-73
2021/09/15 10:34:41;;;;;;;23.95;21.70;;;22.30;79.00;;;;;;5211365;28;20099;-72
2021/09/15 10:37:12;;;;;;;22.65;20.85;;;22.40;79.30;;;;;;5189086;28;20049;-73
2021/09/15 10:39:57;;;;;;;21.63;20.00;;;22.50;77.80;;;;;;5212002;28;20045;-72
2021/09/15 10:42:35;;;;;;;21.38;19.77;;;22.60;77.10;;;;;;5215820;28;20056;-73
2021/09/15 10:45:12;;;;;;;21.42;19.63;;;22.60;77.50;;;;;;5204450;28;20446;-72
2021/09/15 10:47:49;;;;;;;21.70;19.98;;;22.60;77.50;;;;;;5212889;28;20210;-71
2021/09/15 10:50:27;;;;;;;21.02;19.42;;;22.70;74.30;;;;;;5214026;28;20041;-73
2021/09/15 10:53:08;;;;;;;21.48;19.67;;;22.70;76.00;;;;;;5213630;28;20103;-73
2021/09/15 10:55:57;;;;;;;21.73;20.08;;;22.70;75.50;;;;;;5193697;28;20049;-71
2021/09/15 10:58:37;;;;;;;21.35;19.65;;;22.70;74.30;;;;;;5213345;28;20052;-71
2021/09/15 11:01:11;;;;;;;20.85;19.05;;;22.80;75.30;;;;;;5214104;28;20099;-71
2021/09/15 11:03:53;;;;;;;21.58;19.80;;;22.80;74.10;;;;;;5206115;28;20413;-71
2021/09/15 11:06:25;;;;;;;20.90;19.40;;;22.80;74.90;;;;;;5212572;28;20098;-71
2021/09/15 11:08:57;;;;;;;21.75;19.90;;;22.80;74.70;;;;;;5212366;28;20052;-72
2021/09/15 11:11:29;;;;;;;21.30;19.55;;;22.80;75.70;;;;;;5214243;28;20064;-72
2021/09/15 11:14:05;;;;;;;21.85;20.08;;;22.90;75.70;;;;;;5214497;28;20106;-72
2021/09/15 11:16:39;;;;;;;21.33;19.73;;;23.00;75.40;;;;;;5210100;28;20037;-71
2021/09/15 11:19:18;;;;;;;21.35;19.50;;;23.00;74.90;;;;;;5212376;28;20439;-71
2021/09/15 11:21:54;;;;;;;21.17;19.45;;;23.10;76.10;;;;;;5213346;28;20045;-71
2021/09/15 11:24:31;;;;;;;22.13;20.52;;;23.10;76.00;;;;;;5210113;28;20036;-71
2021/09/15 11:27:07;;;;;;;22.10;20.35;;;23.30;74.50;;;;;;5209782;28;20164;-73
2021/09/15 11:29:48;;;;;;;22.25;20.42;;;23.40;72.60;;;;;;5212865;28;20041;-71
2021/09/15 11:32:21;;;;;;;22.38;20.73;;;23.50;73.60;;;;;;5211545;28;20537;-70
2021/09/15 11:34:54;;;;;;;22.70;20.85;;;23.60;72.90;;;;;;5210242;28;20678;-71
2021/09/15 11:37:32;;;;;;;22.27;20.58;;;23.60;71.90;;;;;;5211812;28;20037;-73
2021/09/15 11:40:06;;;;;;;23.05;21.15;;;23.70;70.90;;;;;;5215497;28;20091;-72
2021/09/15 11:42:38;;;;;;;23.38;21.67;;;23.80;71.80;;;;;;5176144;28;20057;-71
2021/09/15 11:45:23;;;;;;;22.50;20.80;;;24.00;70.20;;;;;;5194804;28;20048;-73
2021/09/15 11:47:56;;;;;;;23.27;21.50;;;24.10;70.90;;;;;;5214458;28;20127;-72
2021/09/15 11:50:33;;;;;;;22.88;20.98;;;24.30;68.70;;;;;;5213273;28;20123;-72
2021/09/15 11:53:11;;;;;;;22.05;20.35;;;24.30;70.90;;;;;;5195767;28;20051;-72
2021/09/15 11:55:51;;;;;;;21.02;19.25;;;24.30;67.80;;;;;;5214248;28;20435;-71
2021/09/15 11:58:25;;;;;;;20.58;18.77;;;24.30;64.10;;;;;;5216025;28;20044;-72
2021/09/15 12:00:57;;;;;;;21.25;19.65;;;24.10;67.60;;;;;;5192905;28;20041;-71
2021/09/15 12:03:32;;;;;;;20.67;18.80;;;24.10;67.70;;;;;;5218324;28;20041;-72
2021/09/15 12:06:04;;;;;;;21.63;19.88;;;24.00;64.90;;;;;;5216292;28;20049;-73
2021/09/15 12:08:38;;;;;;;20.42;18.73;;;23.90;62.80;;;;;;5217053;28;20045;-72
2021/09/15 12:11:10;;;;;;;20.83;19.13;;;23.80;64.40;;;;;;5215117;28;20049;-72
2021/09/15 12:13:42;;;;;;;21.02;19.35;;;23.80;65.50;;;;;;5217123;28;20168;-71
2021/09/15 12:16:29;;;;;;;21.60;19.92;;;23.70;67.20;;;;;;5194593;28;20127;-72
2021/09/15 12:19:12;;;;;;;21.30;19.70;;;23.70;67.00;;;;;;5212986;28;20049;-73
2021/09/15 12:21:47;;;;;;;21.48;19.65;;;23.60;67.30;;;;;;5216078;28;20059;-72
2021/09/15 12:24:20;;;;;;;20.30;18.63;;;23.50;67.70;;;;;;5216660;28;20057;-72
2021/09/15 12:26:53;;;;;;;19.52;17.92;;;23.50;68.00;;;;;;5216673;28;20938;-71
2021/09/15 12:29:29;;;;;;;20.17;18.50;;;23.50;68.80;;;;;;5216211;28;20151;-71
2021/09/15 12:32:02;;;;;;;19.73;17.95;;;23.50;69.10;;;;;;5216365;28;20103;-71
2021/09/15 12:34:42;;;;;;;20.27;18.48;;;23.50;67.40;;;;;;5217511;28;20044;-72
2021/09/15 12:37:16;;;;;;;19.88;18.17;;;23.50;66.80;;;;;;5216784;28;20045;-71
2021/09/15 12:39:52;;;;;;;20.10;18.45;;;23.50;66.70;;;;;;5216688;28;20165;-72
2021/09/15 12:42:26;;;;;;;19.60;18.00;;;23.50;65.60;;;;;;5216852;28;20102;-71
2021/09/15 12:45:05;;;;;;;20.52;18.70;;;23.40;65.90;;;;;;5216106;28;20090;-71
2021/09/15 12:47:42;;;;;;;20.58;18.67;;;23.30;66.00;;;;;;5216427;28;20049;-72
2021/09/15 12:50:20;;;;;;;19.83;18.13;;;23.30;66.40;;;;;;5216327;28;20072;-71
2021/09/15 12:53:10;;;;;;;19.10;17.50;;;23.40;67.60;;;;;;5207966;28;20194;-71
2021/09/15 12:55:45;;;;;;;19.98;18.38;;;23.40;67.90;;;;;;5216456;28;20041;-72
2021/09/15 12:58:33;;;;;;;20.88;19.08;;;23.50;68.80;;;;;;5214769;28;20133;-71
2021/09/15 13:01:06;;;;;;;20.60;18.80;;;23.50;67.80;;;;;;5217536;28;20037;-72
2021/09/15 13:03:40;;;;;;;19.90;18.40;;;23.50;68.30;;;;;;5215171;28;20418;-71
2021/09/15 13:06:16;;;;;;;20.38;18.55;;;23.50;67.60;;;;;;5214588;28;20057;-71
2021/09/15 13:08:50;;;;;;;19.73;18.15;;;23.60;66.90;;;;;;5232714;28;20083;-72
2021/09/15 13:11:23;;;;;;;20.13;18.50;;;23.70;68.80;;;;;;5207123;28;20045;-70
2021/09/15 13:13:55;;;;;;;20.23;18.52;;;23.70;68.00;;;;;;5217188;28;20399;-71
2021/09/15 13:16:27;;;;;;;21.67;19.65;;;23.90;66.90;;;;;;5212694;28;20045;-72
2021/09/15 13:18:59;;;;;;;21.00;19.30;;;24.10;68.30;;;;;;5198612;28;20145;-71
2021/09/15 13:21:31;;;;;;;21.02;19.23;;;24.20;66.50;;;;;;5198927;28;20160;-71